sensor_id;sensor_type;location;lat;lon;timestamp;P1;durP1;ratioP1;P2;durP2;ratioP2
60076;SDS011;45950;45.208;20.374;2022-09-09T00:01:58;12.32;;;9.02;;
60076;SDS011;45950;45.208;20.374;2022-09-09T00:04:27;13.65;;;8.02;;
60076;SDS011;45950;45.208;20.374;2022-09-09T00:06:56;10.95;;;9.40;;
60076;SDS011;45950;45.208;20.374;2022-09-09T00:09:28;11.52;;;9.65;;
60076;SDS011;45950;45.208;20.374;2022-09-09T00:11:57;10.70;;;8.63;;
60076;SDS011;45950;45.208;20.374;2022-09-09T00:14:26;10.38;;;8.23;;
60076;SDS011;45950;45.208;20.374;2022-09-09T00:16:58;12.82;;;9.80;;
60076;SDS011;45950;45.208;20.374;2022-09-09T00:19:30;15.32;;;11.27;;
60076;SDS011;45950;45.208;20.374;2022-09-09T00:22:24;13.60;;;11.05;;
60076;SDS011;45950;45.208;20.374;2022-09-09T00:25:22;12.88;;;9.50;;
60076;SDS011;45950;45.208;20.374;2022-09-09T00:28:04;15.10;;;9.65;;
60076;SDS011;45950;45.208;20.374;2022-09-09T00:30:43;11.50;;;8.23;;
60076;SDS011;45950;45.208;20.374;2022-09-09T00:33:23;15.73;;;11.55;;
60076;SDS011;45950;45.208;20.374;2022-09-09T00:35:54;15.90;;;12.27;;
60076;SDS011;45950;45.208;20.374;2022-09-09T00:38:33;11.80;;;8.70;;
60076;SDS011;45950;45.208;20.374;2022-09-09T00:46:53;10.80;;;8.20;;
60076;SDS011;45950;45.208;20.374;2022-09-09T00:49:48;13.65;;;10.82;;
60076;SDS011;45950;45.208;20.374;2022-09-09T00:52:32;11.98;;;10.45;;
60076;SDS011;45950;45.208;20.374;2022-09-09T00:55:12;12.80;;;10.32;;
60076;SDS011;45950;45.208;20.374;2022-09-09T00:57:46;11.35;;;8.65;;
60076;SDS011;45950;45.208;20.374;2022-09-09T01:00:26;14.35;;;9.77;;
60076;SDS011;45950;45.208;20.374;2022-09-09T01:03:12;14.13;;;11.25;;
60076;SDS011;45950;45.208;20.374;2022-09-09T01:05:56;11.65;;;9.95;;
60076;SDS011;45950;45.208;20.374;2022-09-09T01:11:28;13.02;;;9.85;;
60076;SDS011;45950;45.208;20.374;2022-09-09T01:14:10;16.27;;;10.88;;
60076;SDS011;45950;45.208;20.374;2022-09-09T01:16:52;14.30;;;10.25;;
60076;SDS011;45950;45.208;20.374;2022-09-09T01:19:35;12.52;;;9.05;;
60076;SDS011;45950;45.208;20.374;2022-09-09T01:22:14;11.75;;;9.25;;
60076;SDS011;45950;45.208;20.374;2022-09-09T01:27:49;12.80;;;9.88;;
60076;SDS011;45950;45.208;20.374;2022-09-09T01:30:20;17.00;;;10.80;;
60076;SDS011;45950;45.208;20.374;2022-09-09T01:32:49;13.93;;;10.95;;
60076;SDS011;45950;45.208;20.374;2022-09-09T01:35:27;14.07;;;10.50;;
60076;SDS011;45950;45.208;20.374;2022-09-09T01:38:00;17.10;;;9.88;;
60076;SDS011;45950;45.208;20.374;2022-09-09T01:40:32;12.00;;;10.57;;
60076;SDS011;45950;45.208;20.374;2022-09-09T01:43:09;12.07;;;9.38;;
60076;SDS011;45950;45.208;20.374;2022-09-09T01:45:44;16.58;;;10.85;;
60076;SDS011;45950;45.208;20.374;2022-09-09T01:48:25;16.52;;;10.55;;
60076;SDS011;45950;45.208;20.374;2022-09-09T01:51:07;12.05;;;9.60;;
60076;SDS011;45950;45.208;20.374;2022-09-09T01:53:41;12.02;;;9.73;;
60076;SDS011;45950;45.208;20.374;2022-09-09T01:56:19;12.80;;;9.10;;
60076;SDS011;45950;45.208;20.374;2022-09-09T01:58:57;14.00;;;10.25;;
60076;SDS011;45950;45.208;20.374;2022-09-09T02:01:42;13.95;;;10.00;;
60076;SDS011;45950;45.208;20.374;2022-09-09T02:04:20;11.55;;;9.85;;
60076;SDS011;45950;45.208;20.374;2022-09-09T02:06:54;10.73;;;8.80;;
60076;SDS011;45950;45.208;20.374;2022-09-09T02:09:24;12.48;;;9.38;;
60076;SDS011;45950;45.208;20.374;2022-09-09T02:12:02;11.85;;;9.38;;
60076;SDS011;45950;45.208;20.374;2022-09-09T02:14:39;12.85;;;9.38;;
60076;SDS011;45950;45.208;20.374;2022-09-09T02:17:13;10.45;;;8.85;;
60076;SDS011;45950;45.208;20.374;2022-09-09T02:19:51;14.05;;;9.20;;
60076;SDS011;45950;45.208;20.374;2022-09-09T02:22:24;10.75;;;8.70;;
60076;SDS011;45950;45.208;20.374;2022-09-09T02:24:57;11.25;;;9.18;;
60076;SDS011;45950;45.208;20.374;2022-09-09T02:27:37;11.50;;;8.95;;
60076;SDS011;45950;45.208;20.374;2022-09-09T02:30:10;12.82;;;11.02;;
60076;SDS011;45950;45.208;20.374;2022-09-09T02:32:52;18.73;;;12.95;;
60076;SDS011;45950;45.208;20.374;2022-09-09T02:35:28;16.92;;;10.57;;
60076;SDS011;45950;45.208;20.374;2022-09-09T02:37:58;16.85;;;13.15;;
60076;SDS011;45950;45.208;20.374;2022-09-09T02:40:40;12.43;;;11.13;;
60076;SDS011;45950;45.208;20.374;2022-09-09T02:43:14;16.30;;;12.27;;
60076;SDS011;45950;45.208;20.374;2022-09-09T02:45:51;14.35;;;12.30;;
60076;SDS011;45950;45.208;20.374;2022-09-09T02:48:34;11.15;;;9.48;;
60076;SDS011;45950;45.208;20.374;2022-09-09T02:51:07;15.85;;;9.60;;
60076;SDS011;45950;45.208;20.374;2022-09-09T02:53:47;15.90;;;10.13;;
60076;SDS011;45950;45.208;20.374;2022-09-09T02:56:23;13.63;;;8.93;;
60076;SDS011;45950;45.208;20.374;2022-09-09T02:58:56;14.07;;;9.82;;
60076;SDS011;45950;45.208;20.374;2022-09-09T03:01:39;15.82;;;9.48;;
60076;SDS011;45950;45.208;20.374;2022-09-09T03:04:19;16.63;;;11.75;;
60076;SDS011;45950;45.208;20.374;2022-09-09T03:06:52;17.43;;;12.03;;
60076;SDS011;45950;45.208;20.374;2022-09-09T03:09:22;15.43;;;10.35;;
60076;SDS011;45950;45.208;20.374;2022-09-09T03:11:52;14.43;;;10.50;;
60076;SDS011;45950;45.208;20.374;2022-09-09T03:14:25;13.07;;;9.80;;
60076;SDS011;45950;45.208;20.374;2022-09-09T03:17:07;12.20;;;9.57;;
60076;SDS011;45950;45.208;20.374;2022-09-09T03:19:37;13.05;;;10.27;;
60076;SDS011;45950;45.208;20.374;2022-09-09T03:22:09;15.73;;;10.80;;
60076;SDS011;45950;45.208;20.374;2022-09-09T03:24:42;15.00;;;11.00;;
60076;SDS011;45950;45.208;20.374;2022-09-09T03:27:13;12.73;;;9.32;;
60076;SDS011;45950;45.208;20.374;2022-09-09T03:29:45;14.77;;;10.40;;
60076;SDS011;45950;45.208;20.374;2022-09-09T03:32:26;14.20;;;10.98;;
60076;SDS011;45950;45.208;20.374;2022-09-09T03:34:57;14.60;;;11.55;;
60076;SDS011;45950;45.208;20.374;2022-09-09T03:37:39;20.35;;;13.88;;
60076;SDS011;45950;45.208;20.374;2022-09-09T03:40:17;19.38;;;13.82;;
60076;SDS011;45950;45.208;20.374;2022-09-09T03:42:45;16.67;;;13.65;;
60076;SDS011;45950;45.208;20.374;2022-09-09T03:45:15;24.05;;;13.82;;
60076;SDS011;45950;45.208;20.374;2022-09-09T03:47:57;17.65;;;13.27;;
60076;SDS011;45950;45.208;20.374;2022-09-09T03:50:25;17.77;;;12.70;;
60076;SDS011;45950;45.208;20.374;2022-09-09T03:52:53;21.10;;;13.45;;
60076;SDS011;45950;45.208;20.374;2022-09-09T03:55:20;19.52;;;13.30;;
60076;SDS011;45950;45.208;20.374;2022-09-09T03:57:47;16.30;;;12.82;;
60076;SDS011;45950;45.208;20.374;2022-09-09T04:00:14;21.95;;;13.13;;
60076;SDS011;45950;45.208;20.374;2022-09-09T04:02:41;15.52;;;12.45;;
60076;SDS011;45950;45.208;20.374;2022-09-09T04:05:10;15.35;;;11.80;;
60076;SDS011;45950;45.208;20.374;2022-09-09T04:07:36;19.98;;;11.98;;
60076;SDS011;45950;45.208;20.374;2022-09-09T04:10:03;19.17;;;12.80;;
60076;SDS011;45950;45.208;20.374;2022-09-09T04:12:30;17.95;;;13.48;;
60076;SDS011;45950;45.208;20.374;2022-09-09T04:14:57;19.25;;;12.75;;
60076;SDS011;45950;45.208;20.374;2022-09-09T04:17:23;14.60;;;11.75;;
60076;SDS011;45950;45.208;20.374;2022-09-09T04:19:50;19.50;;;11.70;;
60076;SDS011;45950;45.208;20.374;2022-09-09T04:22:24;23.02;;;14.57;;
60076;SDS011;45950;45.208;20.374;2022-09-09T04:24:51;22.95;;;14.07;;
60076;SDS011;45950;45.208;20.374;2022-09-09T04:27:18;22.30;;;12.95;;
60076;SDS011;45950;45.208;20.374;2022-09-09T04:29:44;24.40;;;14.57;;
60076;SDS011;45950;45.208;20.374;2022-09-09T04:32:11;25.38;;;12.30;;
60076;SDS011;45950;45.208;20.374;2022-09-09T04:34:37;28.23;;;13.98;;
60076;SDS011;45950;45.208;20.374;2022-09-09T04:37:04;21.30;;;12.65;;
60076;SDS011;45950;45.208;20.374;2022-09-09T04:39:32;20.08;;;12.90;;
60076;SDS011;45950;45.208;20.374;2022-09-09T04:41:59;19.85;;;12.85;;
60076;SDS011;45950;45.208;20.374;2022-09-09T04:44:26;17.88;;;11.25;;
60076;SDS011;45950;45.208;20.374;2022-09-09T04:46:53;19.67;;;13.80;;
60076;SDS011;45950;45.208;20.374;2022-09-09T04:49:19;21.27;;;14.23;;
60076;SDS011;45950;45.208;20.374;2022-09-09T04:51:46;20.27;;;14.75;;
60076;SDS011;45950;45.208;20.374;2022-09-09T04:54:14;25.08;;;14.75;;
60076;SDS011;45950;45.208;20.374;2022-09-09T04:56:42;21.05;;;14.32;;
60076;SDS011;45950;45.208;20.374;2022-09-09T04:59:09;22.98;;;16.45;;
60076;SDS011;45950;45.208;20.374;2022-09-09T05:01:36;17.23;;;12.90;;
60076;SDS011;45950;45.208;20.374;2022-09-09T05:04:03;23.25;;;14.55;;
60076;SDS011;45950;45.208;20.374;2022-09-09T05:06:30;19.45;;;14.30;;
60076;SDS011;45950;45.208;20.374;2022-09-09T05:11:42;18.80;;;13.85;;
60076;SDS011;45950;45.208;20.374;2022-09-09T05:14:09;16.55;;;9.85;;
60076;SDS011;45950;45.208;20.374;2022-09-09T05:16:36;15.38;;;11.32;;
60076;SDS011;45950;45.208;20.374;2022-09-09T05:19:04;16.45;;;12.20;;
60076;SDS011;45950;45.208;20.374;2022-09-09T05:21:33;16.92;;;12.73;;
60076;SDS011;45950;45.208;20.374;2022-09-09T05:24:04;20.80;;;12.30;;
60076;SDS011;45950;45.208;20.374;2022-09-09T05:26:34;13.43;;;9.52;;
60076;SDS011;45950;45.208;20.374;2022-09-09T05:29:18;12.15;;;8.85;;
60076;SDS011;45950;45.208;20.374;2022-09-09T05:31:50;14.55;;;9.65;;
60076;SDS011;45950;45.208;20.374;2022-09-09T05:34:18;13.07;;;8.90;;
60076;SDS011;45950;45.208;20.374;2022-09-09T05:36:46;15.02;;;10.05;;
60076;SDS011;45950;45.208;20.374;2022-09-09T05:39:22;14.85;;;9.18;;
60076;SDS011;45950;45.208;20.374;2022-09-09T05:41:48;14.60;;;10.30;;
60076;SDS011;45950;45.208;20.374;2022-09-09T05:44:17;15.15;;;10.23;;
60076;SDS011;45950;45.208;20.374;2022-09-09T05:46:44;14.77;;;9.32;;
60076;SDS011;45950;45.208;20.374;2022-09-09T05:49:11;14.27;;;11.02;;
60076;SDS011;45950;45.208;20.374;2022-09-09T05:51:44;15.70;;;10.68;;
60076;SDS011;45950;45.208;20.374;2022-09-09T05:54:10;15.13;;;10.77;;
60076;SDS011;45950;45.208;20.374;2022-09-09T05:56:40;12.52;;;8.75;;
60076;SDS011;45950;45.208;20.374;2022-09-09T05:59:07;14.77;;;11.60;;
60076;SDS011;45950;45.208;20.374;2022-09-09T06:01:36;20.40;;;11.35;;
60076;SDS011;45950;45.208;20.374;2022-09-09T06:07:00;14.35;;;8.52;;
60076;SDS011;45950;45.208;20.374;2022-09-09T06:09:26;12.70;;;8.75;;
60076;SDS011;45950;45.208;20.374;2022-09-09T06:11:53;14.43;;;11.95;;
60076;SDS011;45950;45.208;20.374;2022-09-09T06:14:19;14.40;;;9.18;;
60076;SDS011;45950;45.208;20.374;2022-09-09T06:16:48;18.77;;;14.40;;
60076;SDS011;45950;45.208;20.374;2022-09-09T06:19:14;18.25;;;13.93;;
60076;SDS011;45950;45.208;20.374;2022-09-09T06:21:41;16.55;;;11.88;;
60076;SDS011;45950;45.208;20.374;2022-09-09T06:24:09;14.65;;;11.30;;
60076;SDS011;45950;45.208;20.374;2022-09-09T06:26:39;14.73;;;9.30;;
60076;SDS011;45950;45.208;20.374;2022-09-09T06:29:06;12.23;;;8.45;;
60076;SDS011;45950;45.208;20.374;2022-09-09T06:31:33;16.98;;;11.27;;
60076;SDS011;45950;45.208;20.374;2022-09-09T06:34:03;15.38;;;11.90;;
60076;SDS011;45950;45.208;20.374;2022-09-09T06:36:32;17.33;;;10.95;;
60076;SDS011;45950;45.208;20.374;2022-09-09T06:38:59;20.25;;;13.63;;
60076;SDS011;45950;45.208;20.374;2022-09-09T06:41:26;18.38;;;13.98;;
60076;SDS011;45950;45.208;20.374;2022-09-09T06:43:53;18.45;;;13.98;;
60076;SDS011;45950;45.208;20.374;2022-09-09T06:46:23;18.17;;;13.68;;
60076;SDS011;45950;45.208;20.374;2022-09-09T06:48:52;12.70;;;10.13;;
60076;SDS011;45950;45.208;20.374;2022-09-09T06:51:22;15.82;;;12.55;;
60076;SDS011;45950;45.208;20.374;2022-09-09T06:53:50;18.45;;;14.30;;
60076;SDS011;45950;45.208;20.374;2022-09-09T06:56:18;15.85;;;12.52;;
60076;SDS011;45950;45.208;20.374;2022-09-09T06:58:46;20.42;;;12.90;;
60076;SDS011;45950;45.208;20.374;2022-09-09T07:01:14;20.80;;;14.82;;
60076;SDS011;45950;45.208;20.374;2022-09-09T07:03:41;17.42;;;13.07;;
60076;SDS011;45950;45.208;20.374;2022-09-09T07:06:08;13.18;;;9.68;;
60076;SDS011;45950;45.208;20.374;2022-09-09T07:08:40;15.43;;;11.18;;
60076;SDS011;45950;45.208;20.374;2022-09-09T07:11:07;17.83;;;12.65;;
60076;SDS011;45950;45.208;20.374;2022-09-09T07:13:34;17.65;;;13.20;;
60076;SDS011;45950;45.208;20.374;2022-09-09T07:16:04;16.90;;;13.07;;
60076;SDS011;45950;45.208;20.374;2022-09-09T07:18:31;14.65;;;12.10;;
60076;SDS011;45950;45.208;20.374;2022-09-09T07:20:58;14.75;;;10.60;;
60076;SDS011;45950;45.208;20.374;2022-09-09T07:23:25;12.35;;;10.50;;
60076;SDS011;45950;45.208;20.374;2022-09-09T07:25:53;12.18;;;10.57;;
60076;SDS011;45950;45.208;20.374;2022-09-09T07:28:35;16.92;;;11.10;;
60076;SDS011;45950;45.208;20.374;2022-09-09T07:31:02;12.85;;;10.45;;
60076;SDS011;45950;45.208;20.374;2022-09-09T07:33:29;11.77;;;10.48;;
60076;SDS011;45950;45.208;20.374;2022-09-09T07:36:01;14.25;;;10.63;;
60076;SDS011;45950;45.208;20.374;2022-09-09T07:38:28;16.48;;;11.23;;
60076;SDS011;45950;45.208;20.374;2022-09-09T07:41:03;12.63;;;11.18;;
60076;SDS011;45950;45.208;20.374;2022-09-09T07:43:40;11.07;;;9.15;;
60076;SDS011;45950;45.208;20.374;2022-09-09T07:46:07;16.20;;;12.40;;
60076;SDS011;45950;45.208;20.374;2022-09-09T07:48:34;11.10;;;9.93;;
60076;SDS011;45950;45.208;20.374;2022-09-09T07:51:04;12.80;;;9.82;;
60076;SDS011;45950;45.208;20.374;2022-09-09T07:53:32;13.70;;;9.23;;
60076;SDS011;45950;45.208;20.374;2022-09-09T07:56:03;12.52;;;9.38;;
60076;SDS011;45950;45.208;20.374;2022-09-09T07:58:30;11.13;;;7.97;;
60076;SDS011;45950;45.208;20.374;2022-09-09T08:00:57;10.95;;;9.80;;
60076;SDS011;45950;45.208;20.374;2022-09-09T08:03:23;15.98;;;10.20;;
60076;SDS011;45950;45.208;20.374;2022-09-09T08:05:50;12.32;;;8.95;;
60076;SDS011;45950;45.208;20.374;2022-09-09T08:08:17;13.73;;;10.90;;
60076;SDS011;45950;45.208;20.374;2022-09-09T08:10:44;14.80;;;11.80;;
60076;SDS011;45950;45.208;20.374;2022-09-09T08:13:12;16.45;;;11.68;;
60076;SDS011;45950;45.208;20.374;2022-09-09T08:15:39;15.85;;;10.35;;
60076;SDS011;45950;45.208;20.374;2022-09-09T08:18:07;15.25;;;10.43;;
60076;SDS011;45950;45.208;20.374;2022-09-09T08:20:35;16.15;;;11.75;;
60076;SDS011;45950;45.208;20.374;2022-09-09T08:23:02;14.95;;;11.02;;
60076;SDS011;45950;45.208;20.374;2022-09-09T08:25:30;12.70;;;9.18;;
60076;SDS011;45950;45.208;20.374;2022-09-09T08:27:58;10.13;;;7.75;;
60076;SDS011;45950;45.208;20.374;2022-09-09T08:30:26;12.63;;;9.88;;
60076;SDS011;45950;45.208;20.374;2022-09-09T08:32:53;13.02;;;11.02;;
60076;SDS011;45950;45.208;20.374;2022-09-09T08:35:19;10.27;;;7.07;;
60076;SDS011;45950;45.208;20.374;2022-09-09T08:37:46;13.02;;;8.88;;
60076;SDS011;45950;45.208;20.374;2022-09-09T08:40:16;13.32;;;10.40;;
60076;SDS011;45950;45.208;20.374;2022-09-09T08:42:44;10.85;;;9.02;;
60076;SDS011;45950;45.208;20.374;2022-09-09T08:45:19;8.63;;;6.90;;
60076;SDS011;45950;45.208;20.374;2022-09-09T08:47:52;14.38;;;10.80;;
60076;SDS011;45950;45.208;20.374;2022-09-09T08:50:22;9.82;;;6.53;;
60076;SDS011;45950;45.208;20.374;2022-09-09T08:52:53;9.98;;;8.60;;
60076;SDS011;45950;45.208;20.374;2022-09-09T08:55:22;7.75;;;6.25;;
60076;SDS011;45950;45.208;20.374;2022-09-09T08:57:51;10.15;;;7.25;;
60076;SDS011;45950;45.208;20.374;2022-09-09T09:00:19;11.82;;;7.82;;
60076;SDS011;45950;45.208;20.374;2022-09-09T09:02:49;8.32;;;7.07;;
60076;SDS011;45950;45.208;20.374;2022-09-09T09:05:23;9.70;;;7.07;;
60076;SDS011;45950;45.208;20.374;2022-09-09T09:07:55;12.30;;;8.93;;
60076;SDS011;45950;45.208;20.374;2022-09-09T09:10:28;10.63;;;7.93;;
60076;SDS011;45950;45.208;20.374;2022-09-09T09:12:56;13.43;;;10.38;;
60076;SDS011;45950;45.208;20.374;2022-09-09T09:15:24;14.27;;;10.25;;
60076;SDS011;45950;45.208;20.374;2022-09-09T09:17:51;13.82;;;8.32;;
60076;SDS011;45950;45.208;20.374;2022-09-09T09:20:18;9.70;;;8.70;;
60076;SDS011;45950;45.208;20.374;2022-09-09T09:22:49;12.10;;;8.98;;
60076;SDS011;45950;45.208;20.374;2022-09-09T09:25:22;9.02;;;7.20;;
60076;SDS011;45950;45.208;20.374;2022-09-09T09:27:51;13.35;;;9.52;;
60076;SDS011;45950;45.208;20.374;2022-09-09T09:30:21;11.25;;;8.35;;
60076;SDS011;45950;45.208;20.374;2022-09-09T09:35:50;13.65;;;10.52;;
60076;SDS011;45950;45.208;20.374;2022-09-09T09:38:20;14.63;;;10.63;;
60076;SDS011;45950;45.208;20.374;2022-09-09T09:40:50;13.63;;;9.77;;
60076;SDS011;45950;45.208;20.374;2022-09-09T09:46:18;15.85;;;11.63;;
60076;SDS011;45950;45.208;20.374;2022-09-09T09:48:45;16.67;;;10.10;;
60076;SDS011;45950;45.208;20.374;2022-09-09T09:51:22;14.10;;;10.95;;
60076;SDS011;45950;45.208;20.374;2022-09-09T09:53:51;10.90;;;9.23;;
60076;SDS011;45950;45.208;20.374;2022-09-09T09:56:25;12.32;;;9.50;;
60076;SDS011;45950;45.208;20.374;2022-09-09T09:58:52;8.88;;;7.35;;
60076;SDS011;45950;45.208;20.374;2022-09-09T10:01:20;9.85;;;8.85;;
60076;SDS011;45950;45.208;20.374;2022-09-09T10:03:50;10.32;;;8.98;;
60076;SDS011;45950;45.208;20.374;2022-09-09T10:06:17;13.32;;;8.93;;
60076;SDS011;45950;45.208;20.374;2022-09-09T10:08:44;13.43;;;11.23;;
60076;SDS011;45950;45.208;20.374;2022-09-09T10:11:25;10.73;;;8.18;;
60076;SDS011;45950;45.208;20.374;2022-09-09T10:13:56;11.50;;;8.63;;
60076;SDS011;45950;45.208;20.374;2022-09-09T10:16:32;10.02;;;7.82;;
60076;SDS011;45950;45.208;20.374;2022-09-09T10:19:05;12.70;;;8.10;;
60076;SDS011;45950;45.208;20.374;2022-09-09T10:21:43;11.73;;;8.63;;
60076;SDS011;45950;45.208;20.374;2022-09-09T10:27:04;8.65;;;7.32;;
60076;SDS011;45950;45.208;20.374;2022-09-09T10:29:35;10.18;;;6.90;;
60076;SDS011;45950;45.208;20.374;2022-09-09T10:32:13;8.82;;;7.68;;
60076;SDS011;45950;45.208;20.374;2022-09-09T10:34:52;9.90;;;7.25;;
60076;SDS011;45950;45.208;20.374;2022-09-09T10:37:25;9.43;;;7.57;;
60076;SDS011;45950;45.208;20.374;2022-09-09T10:39:54;10.98;;;8.52;;
60076;SDS011;45950;45.208;20.374;2022-09-09T10:42:25;9.18;;;7.82;;
60076;SDS011;45950;45.208;20.374;2022-09-09T10:44:57;8.80;;;7.18;;
60076;SDS011;45950;45.208;20.374;2022-09-09T10:47:49;9.50;;;7.10;;
60076;SDS011;45950;45.208;20.374;2022-09-09T10:50:24;10.30;;;7.18;;
60076;SDS011;45950;45.208;20.374;2022-09-09T10:53:02;12.32;;;10.20;;
60076;SDS011;45950;45.208;20.374;2022-09-09T10:55:35;11.60;;;8.75;;
60076;SDS011;45950;45.208;20.374;2022-09-09T10:58:05;8.85;;;7.15;;
60076;SDS011;45950;45.208;20.374;2022-09-09T11:00:36;10.88;;;6.60;;
60076;SDS011;45950;45.208;20.374;2022-09-09T11:03:19;8.35;;;6.32;;
60076;SDS011;45950;45.208;20.374;2022-09-09T11:05:47;10.77;;;7.78;;
60076;SDS011;45950;45.208;20.374;2022-09-09T11:08:17;10.32;;;7.45;;
60076;SDS011;45950;45.208;20.374;2022-09-09T11:10:45;10.48;;;7.38;;
60076;SDS011;45950;45.208;20.374;2022-09-09T11:13:15;9.05;;;6.78;;
60076;SDS011;45950;45.208;20.374;2022-09-09T11:15:45;8.10;;;6.30;;
60076;SDS011;45950;45.208;20.374;2022-09-09T11:18:13;12.75;;;6.72;;
60076;SDS011;45950;45.208;20.374;2022-09-09T11:20:42;8.38;;;6.07;;
60076;SDS011;45950;45.208;20.374;2022-09-09T11:23:09;8.02;;;6.20;;
60076;SDS011;45950;45.208;20.374;2022-09-09T11:25:39;11.75;;;8.00;;
60076;SDS011;45950;45.208;20.374;2022-09-09T11:28:10;10.68;;;7.70;;
60076;SDS011;45950;45.208;20.374;2022-09-09T11:30:45;9.93;;;7.10;;
60076;SDS011;45950;45.208;20.374;2022-09-09T11:33:22;7.25;;;6.25;;
60076;SDS011;45950;45.208;20.374;2022-09-09T11:35:54;9.63;;;6.80;;
60076;SDS011;45950;45.208;20.374;2022-09-09T11:38:25;7.90;;;6.43;;
60076;SDS011;45950;45.208;20.374;2022-09-09T11:43:55;10.90;;;6.13;;
60076;SDS011;45950;45.208;20.374;2022-09-09T11:46:31;8.95;;;5.80;;
60076;SDS011;45950;45.208;20.374;2022-09-09T11:49:00;9.43;;;6.28;;
60076;SDS011;45950;45.208;20.374;2022-09-09T11:51:28;7.35;;;6.35;;
60076;SDS011;45950;45.208;20.374;2022-09-09T11:53:56;8.48;;;5.65;;
60076;SDS011;45950;45.208;20.374;2022-09-09T11:56:24;9.48;;;7.28;;
60076;SDS011;45950;45.208;20.374;2022-09-09T11:58:55;9.70;;;6.70;;
60076;SDS011;45950;45.208;20.374;2022-09-09T12:01:37;9.18;;;5.38;;
60076;SDS011;45950;45.208;20.374;2022-09-09T12:04:17;8.57;;;5.05;;
60076;SDS011;45950;45.208;20.374;2022-09-09T12:06:45;10.73;;;5.50;;
60076;SDS011;45950;45.208;20.374;2022-09-09T12:09:17;6.35;;;5.07;;
60076;SDS011;45950;45.208;20.374;2022-09-09T12:11:44;7.05;;;4.93;;
60076;SDS011;45950;45.208;20.374;2022-09-09T12:14:18;9.40;;;4.93;;
60076;SDS011;45950;45.208;20.374;2022-09-09T12:16:47;7.60;;;5.15;;
60076;SDS011;45950;45.208;20.374;2022-09-09T12:19:14;9.60;;;5.63;;
60076;SDS011;45950;45.208;20.374;2022-09-09T12:21:44;8.90;;;5.45;;
60076;SDS011;45950;45.208;20.374;2022-09-09T12:24:13;9.63;;;5.25;;
60076;SDS011;45950;45.208;20.374;2022-09-09T12:26:42;6.13;;;4.90;;
60076;SDS011;45950;45.208;20.374;2022-09-09T12:32:10;13.88;;;6.63;;
60076;SDS011;45950;45.208;20.374;2022-09-09T12:34:39;9.15;;;6.22;;
60076;SDS011;45950;45.208;20.374;2022-09-09T12:37:17;8.00;;;4.95;;
60076;SDS011;45950;45.208;20.374;2022-09-09T12:39:49;7.93;;;5.15;;
60076;SDS011;45950;45.208;20.374;2022-09-09T12:42:18;10.15;;;4.95;;
60076;SDS011;45950;45.208;20.374;2022-09-09T12:47:50;6.30;;;4.70;;
60076;SDS011;45950;45.208;20.374;2022-09-09T12:50:17;8.85;;;6.30;;
60076;SDS011;45950;45.208;20.374;2022-09-09T12:52:44;6.25;;;4.50;;
60076;SDS011;45950;45.208;20.374;2022-09-09T12:55:16;9.48;;;5.00;;
60076;SDS011;45950;45.208;20.374;2022-09-09T12:57:43;8.05;;;5.28;;
60076;SDS011;45950;45.208;20.374;2022-09-09T13:00:12;8.15;;;5.25;;
60076;SDS011;45950;45.208;20.374;2022-09-09T13:02:47;10.05;;;4.93;;
60076;SDS011;45950;45.208;20.374;2022-09-09T13:05:17;6.07;;;5.10;;
60076;SDS011;45950;45.208;20.374;2022-09-09T13:07:45;7.88;;;5.00;;
60076;SDS011;45950;45.208;20.374;2022-09-09T13:10:31;8.13;;;4.15;;
60076;SDS011;45950;45.208;20.374;2022-09-09T13:12:58;7.28;;;4.80;;
60076;SDS011;45950;45.208;20.374;2022-09-09T13:15:26;9.20;;;5.47;;
60076;SDS011;45950;45.208;20.374;2022-09-09T13:17:55;5.63;;;4.10;;
60076;SDS011;45950;45.208;20.374;2022-09-09T13:20:24;5.63;;;3.50;;
60076;SDS011;45950;45.208;20.374;2022-09-09T13:25:53;6.63;;;4.32;;
60076;SDS011;45950;45.208;20.374;2022-09-09T13:28:20;7.28;;;3.20;;
60076;SDS011;45950;45.208;20.374;2022-09-09T13:30:54;8.15;;;4.25;;
60076;SDS011;45950;45.208;20.374;2022-09-09T13:33:28;6.55;;;4.32;;
60076;SDS011;45950;45.208;20.374;2022-09-09T13:35:56;7.45;;;4.15;;
60076;SDS011;45950;45.208;20.374;2022-09-09T13:38:33;5.90;;;4.10;;
60076;SDS011;45950;45.208;20.374;2022-09-09T13:41:03;5.32;;;3.72;;
60076;SDS011;45950;45.208;20.374;2022-09-09T13:43:31;5.30;;;3.75;;
60076;SDS011;45950;45.208;20.374;2022-09-09T13:45:58;7.97;;;3.50;;
60076;SDS011;45950;45.208;20.374;2022-09-09T13:48:26;5.30;;;3.67;;
60076;SDS011;45950;45.208;20.374;2022-09-09T13:50:53;6.97;;;3.50;;
60076;SDS011;45950;45.208;20.374;2022-09-09T13:53:23;5.47;;;3.30;;
60076;SDS011;45950;45.208;20.374;2022-09-09T13:55:49;6.35;;;3.72;;
60076;SDS011;45950;45.208;20.374;2022-09-09T13:58:16;4.85;;;3.50;;
60076;SDS011;45950;45.208;20.374;2022-09-09T14:03:30;5.95;;;3.63;;
60076;SDS011;45950;45.208;20.374;2022-09-09T14:05:58;7.15;;;3.38;;
60076;SDS011;45950;45.208;20.374;2022-09-09T14:08:27;8.30;;;3.40;;
60076;SDS011;45950;45.208;20.374;2022-09-09T14:11:02;8.10;;;3.75;;
60076;SDS011;45950;45.208;20.374;2022-09-09T14:13:28;4.50;;;3.50;;
60076;SDS011;45950;45.208;20.374;2022-09-09T14:15:55;4.63;;;3.47;;
60076;SDS011;45950;45.208;20.374;2022-09-09T14:18:21;5.80;;;3.90;;
60076;SDS011;45950;45.208;20.374;2022-09-09T14:20:50;4.88;;;3.38;;
60076;SDS011;45950;45.208;20.374;2022-09-09T14:23:17;11.18;;;5.18;;
60076;SDS011;45950;45.208;20.374;2022-09-09T14:26:04;5.30;;;4.30;;
60076;SDS011;45950;45.208;20.374;2022-09-09T14:28:31;7.43;;;4.30;;
60076;SDS011;45950;45.208;20.374;2022-09-09T14:30:58;7.50;;;4.90;;
60076;SDS011;45950;45.208;20.374;2022-09-09T14:36:13;7.40;;;4.50;;
60076;SDS011;45950;45.208;20.374;2022-09-09T14:38:40;9.15;;;4.03;;
60076;SDS011;45950;45.208;20.374;2022-09-09T14:43:57;5.53;;;4.82;;
60076;SDS011;45950;45.208;20.374;2022-09-09T14:46:24;8.82;;;4.78;;
60076;SDS011;45950;45.208;20.374;2022-09-09T14:48:51;6.40;;;4.10;;
60076;SDS011;45950;45.208;20.374;2022-09-09T14:51:19;6.63;;;4.18;;
60076;SDS011;45950;45.208;20.374;2022-09-09T14:53:47;8.90;;;4.32;;
60076;SDS011;45950;45.208;20.374;2022-09-09T14:56:14;6.95;;;4.10;;
60076;SDS011;45950;45.208;20.374;2022-09-09T14:58:41;5.97;;;4.13;;
60076;SDS011;45950;45.208;20.374;2022-09-09T15:01:11;6.60;;;4.25;;
60076;SDS011;45950;45.208;20.374;2022-09-09T15:03:38;6.63;;;3.75;;
60076;SDS011;45950;45.208;20.374;2022-09-09T15:06:05;7.47;;;4.07;;
60076;SDS011;45950;45.208;20.374;2022-09-09T15:08:33;5.53;;;3.83;;
60076;SDS011;45950;45.208;20.374;2022-09-09T15:11:00;5.05;;;3.55;;
60076;SDS011;45950;45.208;20.374;2022-09-09T15:13:27;5.45;;;3.40;;
60076;SDS011;45950;45.208;20.374;2022-09-09T15:15:53;6.38;;;3.53;;
60076;SDS011;45950;45.208;20.374;2022-09-09T15:18:22;4.07;;;3.20;;
60076;SDS011;45950;45.208;20.374;2022-09-09T15:20:48;6.75;;;3.83;;
60076;SDS011;45950;45.208;20.374;2022-09-09T15:23:15;5.97;;;3.47;;
60076;SDS011;45950;45.208;20.374;2022-09-09T15:25:50;5.88;;;3.80;;
60076;SDS011;45950;45.208;20.374;2022-09-09T15:28:19;8.00;;;4.03;;
60076;SDS011;45950;45.208;20.374;2022-09-09T15:30:47;7.70;;;4.40;;